Time;durP1;ratioP1;P1;durP2;ratioP2;P2;SDS_P1;SDS_P2;PMS_P1;PMS_P2;Temp;Humidity;BMP_temperature;BMP_pressure;BME280_temperature;BME280_humidity;BME280_pressure;Samples;Min_cycle;Max_cycle;Signal;HPM_P1;HPM_P2
2023/10/09 00:01:46;;;;;;;8.32;2.50;;;;;;;22.05;45.27;100107.38;5130286;27;20039;-63
2023/10/09 00:04:13;;;;;;;10.77;2.40;;;;;;;21.91;45.74;100107.53;5124333;27;20062;-63
2023/10/09 00:06:42;;;;;;;7.32;2.20;;;;;;;21.88;46.00;100107.16;5122242;27;20065;-63
2023/10/09 00:09:30;;;;;;;8.48;2.20;;;;;;;21.97;45.65;100106.63;5122619;27;20080;-63
2023/10/09 00:11:57;;;;;;;7.60;2.05;;;;;;;22.08;45.33;100115.00;5121461;27;20349;-62
2023/10/09 00:14:30;;;;;;;8.55;2.00;;;;;;;21.96;45.63;100121.16;5122521;27;20023;-63
2023/10/09 00:17:17;;;;;;;6.45;2.25;;;;;;;21.81;46.51;100119.88;5122575;27;20039;-63
2023/10/09 00:19:43;;;;;;;6.47;2.28;;;;;;;21.75;46.92;100116.19;5121201;27;20067;-63
2023/10/09 00:22:20;;;;;;;6.03;2.15;;;;;;;21.76;46.84;100106.25;5121528;27;20055;-63
2023/10/09 00:24:46;;;;;;;5.47;2.00;;;;;;;21.64;46.82;100109.69;5122980;27;20035;-63
2023/10/09 00:27:12;;;;;;;4.55;2.13;;;;;;;21.59;47.08;100108.72;5122343;27;20035;-62
2023/10/09 00:29:45;;;;;;;4.13;1.95;;;;;;;21.43;47.53;100109.31;5130561;27;20038;-63
2023/10/09 00:32:27;;;;;;;7.78;2.10;;;;;;;21.64;46.69;100108.88;5122495;27;20047;-63
2023/10/09 00:34:58;;;;;;;5.95;1.88;;;;;;;21.66;46.56;100109.47;5123380;27;20050;-63
2023/10/09 00:37:26;;;;;;;8.52;2.35;;;;;;;21.67;46.37;100109.25;5122163;27;20055;-63
2023/10/09 00:39:58;;;;;;;5.82;2.83;;;;;;;21.73;45.57;100110.22;5122569;27;20531;-63
2023/10/09 00:42:32;;;;;;;7.90;2.95;;;;;;;21.72;45.57;100107.75;5122078;27;20039;-63
2023/10/09 00:45:09;;;;;;;7.05;2.72;;;;;;;21.79;45.43;100108.47;5121837;27;20036;-63
2023/10/09 00:47:35;;;;;;;7.93;3.33;;;;;;;21.68;45.66;100116.28;5122172;27;20031;-63
2023/10/09 00:50:20;;;;;;;4.80;3.15;;;;;;;21.69;45.70;100117.09;5121815;27;20042;-63
2023/10/09 00:53:01;;;;;;;6.95;2.67;;;;;;;21.69;45.64;100119.78;5126772;27;20035;-63
2023/10/09 00:55:37;;;;;;;8.52;3.28;;;;;;;21.60;45.57;100127.34;5121639;27;20110;-63
2023/10/09 00:58:09;;;;;;;6.80;2.85;;;;;;;21.39;46.63;100129.66;5121893;27;20345;-63
2023/10/09 01:05:52;;;;;;;8.35;3.15;;;;;;;21.62;45.64;100140.59;5122808;27;20327;-63
2023/10/09 01:08:30;;;;;;;6.80;2.53;;;;;;;21.73;45.51;100139.84;5122148;27;20097;-63
2023/10/09 01:11:18;;;;;;;5.97;2.60;;;;;;;21.84;45.01;100143.66;5122015;28;20040;-63
2023/10/09 01:16:21;;;;;;;5.72;2.85;;;;;;;21.89;44.38;100149.25;5121232;27;20031;-63
2023/10/09 01:18:51;;;;;;;5.32;2.50;;;;;;;21.89;44.22;100157.31;5124573;28;20030;-64
2023/10/09 01:21:21;;;;;;;7.88;2.80;;;;;;;21.81;44.29;100168.38;5125505;27;20043;-63
2023/10/09 01:26:44;;;;;;;6.47;3.35;;;;;;;21.82;44.13;100178.94;5129697;28;20288;-64
2023/10/09 01:29:14;;;;;;;6.22;3.03;;;;;;;21.83;44.07;100187.84;5122016;28;20036;-63
2023/10/09 01:31:51;;;;;;;6.43;3.15;;;;;;;21.81;44.02;100189.94;5121125;28;20038;-63
2023/10/09 01:34:41;;;;;;;6.88;2.72;;;;;;;21.76;44.75;100187.09;5121295;28;20027;-63
2023/10/09 01:37:30;;;;;;;7.20;2.00;;;;;;;21.65;45.24;100191.38;5120726;28;20036;-63
2023/10/09 01:40:22;;;;;;;7.75;2.58;;;;;;;21.53;46.07;100195.84;5121103;28;20322;-63
2023/10/09 01:42:45;;;;;;;7.68;2.70;;;;;;;21.58;46.39;100198.69;5121100;28;20043;-63
2023/10/09 01:47:51;;;;;;;5.30;2.67;;;;;;;21.57;46.98;100205.94;5122265;28;20027;-63
2023/10/09 01:50:26;;;;;;;8.45;2.92;;;;;;;21.59;47.14;100213.81;5120496;28;20047;-63
2023/10/09 01:52:52;;;;;;;7.05;2.80;;;;;;;21.56;47.14;100214.25;5122659;28;20027;-64
2023/10/09 01:55:34;;;;;;;6.05;2.90;;;;;;;21.58;46.96;100220.25;5121153;28;20219;-64
2023/10/09 01:58:05;;;;;;;7.13;3.17;;;;;;;21.42;47.47;100227.03;5130293;28;20229;-63
2023/10/09 02:00:35;;;;;;;6.90;2.55;;;;;;;21.24;47.67;100241.28;5121296;28;20028;-64
2023/10/09 02:03:05;;;;;;;7.60;2.85;;;;;;;20.90;48.96;100260.53;5121146;28;20089;-63
2023/10/09 02:05:33;;;;;;;7.03;2.20;;;;;;;19.97;51.92;100277.03;5122379;28;20236;-63
2023/10/09 02:07:59;;;;;;;4.97;1.42;;;;;;;18.97;55.82;100275.31;5138099;27;20039;-63
2023/10/09 02:13:10;;;;;;;5.65;1.48;;;;;;;17.53;61.31;100284.19;5130641;28;20031;-63
2023/10/09 02:18:18;;;;;;;3.58;0.80;;;;;;;16.59;60.82;100323.53;5120379;28;20031;-62
2023/10/09 02:21:12;;;;;;;3.30;1.02;;;;;;;16.25;61.70;100329.44;5119671;28;20035;-62
2023/10/09 02:23:49;;;;;;;3.55;1.00;;;;;;;16.06;62.51;100324.66;5120173;28;20042;-63
2023/10/09 02:26:25;;;;;;;5.05;1.15;;;;;;;16.07;61.83;100328.97;5125119;27;20043;-62
2023/10/09 02:29:03;;;;;;;2.97;1.10;;;;;;;16.00;61.48;100349.44;5125035;27;20329;-62
2023/10/09 02:31:40;;;;;;;4.93;1.10;;;;;;;15.69;61.76;100358.38;5124993;27;20129;-62
2023/10/09 02:34:10;;;;;;;2.30;0.90;;;;;;;15.64;61.70;100356.25;5123778;27;20036;-62
2023/10/09 02:36:43;;;;;;;4.50;1.13;;;;;;;15.70;61.67;100360.06;5134249;27;20054;-62
2023/10/09 02:39:23;;;;;;;3.25;1.00;;;;;;;15.57;61.74;100365.97;5124880;27;20057;-62
2023/10/09 02:42:00;;;;;;;2.45;0.88;;;;;;;15.32;62.37;100383.13;5127752;27;20326;-62
2023/10/09 02:44:26;;;;;;;3.13;1.02;;;;;;;15.40;62.32;100392.91;5124684;27;20032;-62
2023/10/09 02:46:51;;;;;;;1.98;0.85;;;;;;;15.25;62.38;100398.19;5124612;27;20031;-63
2023/10/09 02:49:21;;;;;;;4.70;1.13;;;;;;;15.33;62.37;100416.81;5123512;27;20031;-62
2023/10/09 02:51:52;;;;;;;4.57;1.85;;;;;;;15.26;62.59;100415.84;5124881;27;20037;-62
2023/10/09 02:54:18;;;;;;;3.20;0.90;;;;;;;15.17;62.66;100416.91;5124108;27;20040;-63
2023/10/09 02:56:54;;;;;;;5.03;1.25;;;;;;;15.14;62.69;100430.59;5125058;27;20031;-62
2023/10/09 02:59:21;;;;;;;1.80;0.90;;;;;;;15.08;62.15;100439.31;5123945;27;20047;-63
2023/10/09 03:01:48;;;;;;;2.08;0.68;;;;;;;15.08;61.55;100441.97;5124356;27;20056;-63
2023/10/09 03:04:14;;;;;;;4.88;0.98;;;;;;;14.91;61.42;100459.88;5125269;27;20042;-62
2023/10/09 03:06:49;;;;;;;2.28;0.70;;;;;;;14.82;61.85;100460.91;5124686;27;20049;-63
2023/10/09 03:09:18;;;;;;;3.08;1.17;;;;;;;14.78;61.96;100456.94;5123657;27;20092;-62
2023/10/09 03:11:53;;;;;;;2.55;1.00;;;;;;;14.68;62.19;100471.28;5124777;27;20430;-63
2023/10/09 03:14:24;;;;;;;1.80;0.70;;;;;;;14.69;61.87;100470.28;5123136;27;20099;-62
2023/10/09 03:16:50;;;;;;;14.52;2.40;;;;;;;14.78;61.89;100472.91;5124380;27;20066;-62
2023/10/09 03:19:16;;;;;;;2.10;0.90;;;;;;;14.72;61.85;100463.78;5123348;27;20113;-62
2023/10/09 03:21:42;;;;;;;4.05;0.95;;;;;;;15.03;61.33;100482.50;5124366;27;20035;-63
2023/10/09 03:24:08;;;;;;;2.97;0.80;;;;;;;14.95;60.72;100477.19;5123426;27;20062;-63
2023/10/09 03:26:34;;;;;;;2.08;0.80;;;;;;;14.77;60.36;100480.09;5124923;27;20035;-63
2023/10/09 03:29:06;;;;;;;1.05;0.60;;;;;;;14.71;60.68;100485.28;5123674;27;20104;-63
2023/10/09 03:31:36;;;;;;;1.73;0.80;;;;;;;14.73;60.27;100493.94;5122945;27;20032;-62
2023/10/09 03:34:02;;;;;;;1.95;0.77;;;;;;;14.77;59.92;100487.25;5122770;27;20034;-62
2023/10/09 03:36:30;;;;;;;2.20;1.20;;;;;;;14.62;59.87;100495.13;5122573;27;20032;-62
2023/10/09 03:38:57;;;;;;;1.50;0.55;;;;;;;14.51;59.61;100501.59;5122201;27;20046;-62
2023/10/09 03:41:26;;;;;;;2.45;1.30;;;;;;;14.82;58.39;100499.06;5122603;27;20047;-62
2023/10/09 03:43:56;;;;;;;1.92;0.80;;;;;;;14.83;57.92;100506.06;5123225;27;20340;-62
2023/10/09 03:46:22;;;;;;;3.63;0.80;;;;;;;14.89;57.22;100512.53;5113219;27;20040;-62
2023/10/09 03:48:48;;;;;;;1.27;0.63;;;;;;;14.88;57.07;100519.72;5123470;27;20061;-62
2023/10/09 03:51:21;;;;;;;2.20;0.80;;;;;;;14.89;55.82;100515.22;5123481;27;20223;-63
2023/10/09 03:53:51;;;;;;;3.05;0.70;;;;;;;14.55;56.19;100516.25;5126365;27;20264;-63
2023/10/09 03:56:18;;;;;;;2.13;0.60;;;;;;;14.36;56.34;100533.41;5122802;27;20218;-63
2023/10/09 03:58:45;;;;;;;3.47;0.60;;;;;;;14.39;56.53;100532.22;5123349;27;20042;-62
2023/10/09 04:01:28;;;;;;;2.53;0.90;;;;;;;14.39;56.13;100538.38;5123459;27;20035;-62
2023/10/09 04:04:04;;;;;;;1.30;0.70;;;;;;;14.42;55.10;100545.25;5122879;27;20035;-62
2023/10/09 04:06:32;;;;;;;1.90;0.70;;;;;;;14.33;54.28;100551.53;5123437;27;20043;-62
2023/10/09 04:09:27;;;;;;;6.57;0.88;;;;;;;14.19;54.35;100557.53;5123213;27;20040;-62
2023/10/09 04:14:47;;;;;;;2.03;0.88;;;;;;;14.23;54.31;100542.88;5122727;27;20255;-62
2023/10/09 04:22:50;;;;;;;;;;;;;;;14.20;51.67;100570.69;5123336;27;20111;-63
2023/10/09 04:25:41;;;;;;;3.28;1.00;;;;;;;14.01;51.68;100573.66;5131110;27;19923;-62
2023/10/09 04:28:09;;;;;;;3.38;0.70;;;;;;;14.02;51.63;100562.84;5135642;27;20050;-62
2023/10/09 04:30:53;;;;;;;1.73;1.00;;;;;;;14.12;51.66;100564.53;5139602;27;20043;-62
2023/10/09 04:41:33;;;;;;;0.73;0.45;;;;;;;13.96;50.40;100583.97;5135786;27;20049;-62
2023/10/09 04:44:18;;;;;;;2.13;1.38;;;;;;;13.83;50.86;100584.44;5139225;27;20279;-62
2023/10/09 04:49:49;;;;;;;1.30;0.70;;;;;;;13.98;50.54;100604.13;5135532;27;20047;-61
2023/10/09 05:03:24;;;;;;;0.82;0.60;;;;;;;13.82;50.01;100620.03;5138625;27;20061;-63
2023/10/09 05:05:58;;;;;;;1.88;1.10;;;;;;;13.86;49.82;100612.56;5132754;27;20106;-63
2023/10/09 05:16:18;;;;;;;1.92;1.10;;;;;;;13.90;50.00;100636.03;5138617;27;20432;-63
2023/10/09 05:18:59;;;;;;;3.47;0.98;;;;;;;13.86;49.68;100639.19;5139101;27;20090;-63
2023/10/09 05:34:36;;;;;;;1.23;0.80;;;;;;;13.89;48.48;100649.50;5138308;28;20035;-62
2023/10/09 05:37:25;;;;;;;2.65;0.93;;;;;;;14.07;48.85;100658.22;5137814;27;20299;-62
2023/10/09 05:53:07;;;;;;;1.90;0.65;;;;;;;13.98;48.04;100689.31;5134692;27;20110;-62
2023/10/09 05:57:00;;;;;;;2.13;0.63;;;;;;;13.93;48.33;100690.81;5134300;27;20043;-62
2023/10/09 06:01:05;;;;;;;2.17;0.98;;;;;;;13.82;48.22;100689.25;5134984;27;20194;-61
2023/10/09 06:04:15;;;;;;;1.90;0.80;;;;;;;14.08;48.55;100691.84;5141202;27;20473;-62
2023/10/09 06:06:45;;;;;;;1.02;0.63;;;;;;;14.10;48.66;100700.50;5138314;27;20038;-62
2023/10/09 06:11:42;;;;;;;2.17;0.80;;;;;;;14.04;48.38;100715.31;5137868;27;20033;-62
2023/10/09 06:19:26;;;;;;;2.00;0.82;;;;;;;14.32;47.58;100731.88;5137453;27;20125;-62
2023/10/09 06:24:41;;;;;;;3.17;0.55;;;;;;;14.18;48.79;100748.47;5143375;27;20052;-63
2023/10/09 06:29:50;;;;;;;1.65;0.80;;;;;;;14.26;48.54;100761.84;5139433;27;20042;-62
2023/10/09 06:34:46;;;;;;;0.85;0.65;;;;;;;14.28;48.82;100773.16;5137547;27;20027;-63
2023/10/09 06:37:19;;;;;;;1.42;0.60;;;;;;;14.32;48.42;100779.84;5137769;27;20217;-63
2023/10/09 06:40:09;;;;;;;2.10;0.77;;;;;;;14.23;48.37;100785.28;5137669;27;20039;-63
2023/10/09 06:47:53;;;;;;;0.80;0.77;;;;;;;14.27;48.79;100800.78;5137236;27;20042;-62
2023/10/09 06:52:57;;;;;;;2.13;0.77;;;;;;;14.16;49.21;100800.25;5137366;27;20424;-63
2023/10/09 06:55:48;;;;;;;0.82;0.70;;;;;;;14.31;49.24;100806.63;5137168;27;20063;-62
2023/10/09 06:58:26;;;;;;;2.20;0.90;;;;;;;14.48;48.89;100810.22;5137238;27;20155;-63
2023/10/09 07:03:29;;;;;;;3.00;0.80;;;;;;;14.43;48.83;100818.72;5136923;27;20058;-63
2023/10/09 07:06:24;;;;;;;1.92;0.70;;;;;;;14.43;48.96;100817.88;5135959;27;20038;-63
2023/10/09 07:14:30;;;;;;;1.50;0.82;;;;;;;14.69;48.20;100816.81;5136785;27;20035;-63
2023/10/09 07:17:15;;;;;;;1.30;0.70;;;;;;;14.75;48.17;100825.16;5136170;27;20043;-62
2023/10/09 07:24:58;;;;;;;1.90;0.77;;;;;;;15.43;46.32;100820.41;5136971;27;20084;-64
2023/10/09 07:38:11;;;;;;;1.95;0.80;;;;;;;16.19;44.20;100832.53;5136471;27;20035;-63
2023/10/09 07:40:56;;;;;;;0.85;0.70;;;;;;;16.31;43.86;100825.81;5136353;27;20035;-63
2023/10/09 07:43:28;;;;;;;2.40;0.82;;;;;;;16.38;43.26;100832.13;5136197;27;20058;-64
2023/10/09 07:48:25;;;;;;;1.40;0.80;;;;;;;16.31;43.93;100835.66;5136658;27;20111;-63
2023/10/09 07:50:57;;;;;;;1.83;1.10;;;;;;;16.38;44.24;100817.94;5136829;27;20103;-62
2023/10/09 07:53:26;;;;;;;1.80;0.93;;;;;;;16.43;44.84;100815.56;5135713;27;20068;-63
2023/10/09 07:55:58;;;;;;;3.67;1.40;;;;;;;16.35;44.10;100819.09;5135865;27;20348;-62
2023/10/09 07:58:25;;;;;;;2.97;0.82;;;;;;;16.26;44.92;100828.16;5136274;27;20031;-63
2023/10/09 08:01:07;;;;;;;3.72;1.00;;;;;;;16.38;43.99;100816.09;5135908;27;20050;-62
2023/10/09 08:03:34;;;;;;;2.85;1.25;;;;;;;16.35;45.32;100815.59;5136407;27;20041;-63
2023/10/09 08:06:37;;;;;;;1.25;0.90;;;;;;;16.19;44.74;100819.16;5135674;27;20355;-62
2023/10/09 08:17:15;;;;;;;2.22;0.90;;;;;;;16.60;44.45;100817.16;5135014;27;20039;-62
2023/10/09 08:19:54;;;;;;;1.30;1.20;;;;;;;16.74;43.88;100808.44;5134256;27;20061;-64
2023/10/09 08:24:55;;;;;;;2.53;1.20;;;;;;;17.05;43.54;100819.13;5135285;27;20039;-64
2023/10/09 08:32:43;;;;;;;3.50;1.40;;;;;;;17.32;42.62;100807.03;5135821;27;20035;-64
2023/10/09 08:37:53;;;;;;;3.63;1.17;;;;;;;17.29;42.70;100811.91;5135271;27;20115;-64
2023/10/09 08:40:20;;;;;;;1.42;0.82;;;;;;;17.27;42.89;100804.06;5135797;27;20418;-64
2023/10/09 08:42:53;;;;;;;4.78;1.60;;;;;;;17.36;43.17;100799.47;5135026;27;20038;-64
2023/10/09 08:45:27;;;;;;;2.10;1.00;;;;;;;17.43;43.12;100793.22;5134287;27;20067;-64
2023/10/09 08:47:56;;;;;;;1.85;1.08;;;;;;;17.43;42.79;100795.06;5136311;27;20027;-64
2023/10/09 08:50:22;;;;;;;2.70;1.10;;;;;;;17.76;42.35;100787.59;5118338;27;20485;-64
2023/10/09 08:52:49;;;;;;;1.75;1.08;;;;;;;17.59;42.89;100788.72;5135104;27;20030;-63
2023/10/09 08:55:18;;;;;;;3.03;1.60;;;;;;;17.70;42.43;100757.03;5134861;27;20409;-64
2023/10/09 08:57:46;;;;;;;3.70;1.40;;;;;;;17.90;42.49;100781.41;5135375;27;20031;-64
2023/10/09 09:00:33;;;;;;;3.13;1.10;;;;;;;17.85;42.40;100781.97;5135019;27;20333;-64
2023/10/09 09:03:02;;;;;;;3.13;1.10;;;;;;;17.62;43.03;100772.28;5135118;27;20062;-64
2023/10/09 09:05:28;;;;;;;3.00;1.20;;;;;;;17.67;42.70;100780.63;5134678;27;20328;-63
2023/10/09 09:07:59;;;;;;;5.93;1.38;;;;;;;17.86;42.89;100780.13;5117348;27;20034;-64
2023/10/09 09:10:35;;;;;;;3.70;1.63;;;;;;;17.56;43.92;100785.38;5134673;27;20067;-64
2023/10/09 09:13:03;;;;;;;1.67;0.80;;;;;;;17.40;44.53;100771.31;5135516;27;20567;-64
2023/10/09 09:15:30;;;;;;;4.32;1.00;;;;;;;17.50;44.83;100769.22;5134713;27;20045;-63
2023/10/09 09:18:09;;;;;;;3.95;1.40;;;;;;;17.65;43.96;100764.72;5135396;27;20058;-64
2023/10/09 09:20:36;;;;;;;3.38;1.17;;;;;;;17.48;44.48;100769.41;5135313;27;20035;-63
2023/10/09 09:23:05;;;;;;;1.75;0.95;;;;;;;17.55;44.44;100774.84;5134826;27;20035;-64
2023/10/09 09:25:45;;;;;;;2.15;1.20;;;;;;;17.49;44.24;100764.88;5135365;27;20046;-64
2023/10/09 09:28:21;;;;;;;5.38;1.48;;;;;;;17.58;44.39;100755.75;5134948;27;20328;-64
2023/10/09 09:30:54;;;;;;;3.53;1.30;;;;;;;17.74;45.22;100760.16;5135081;27;20011;-63
2023/10/09 09:33:39;;;;;;;4.47;1.23;;;;;;;17.65;45.98;100758.53;5135380;27;20039;-64
2023/10/09 09:36:06;;;;;;;2.25;1.38;;;;;;;17.73;46.65;100745.94;5140399;27;20836;-64
2023/10/09 09:39:01;;;;;;;3.13;1.20;;;;;;;17.71;45.10;100749.81;5139583;27;20036;-63
2023/10/09 09:41:24;;;;;;;4.03;1.60;;;;;;;17.76;44.39;100750.94;5138169;27;20089;-64
2023/10/09 09:44:00;;;;;;;6.60;1.40;;;;;;;17.80;45.58;100744.19;5138808;27;20069;-63
2023/10/09 09:46:34;;;;;;;5.35;1.60;;;;;;;17.86;45.57;100746.13;5138780;27;20071;-64
2023/10/09 09:49:01;;;;;;;2.83;1.30;;;;;;;17.95;44.89;100738.81;5137432;27;20046;-64
2023/10/09 09:51:30;;;;;;;3.55;1.50;;;;;;;18.01;44.30;100738.09;5138218;27;20234;-63
2023/10/09 09:53:55;;;;;;;3.05;1.35;;;;;;;18.06;44.50;100733.00;5138156;27;20042;-63
2023/10/09 09:56:25;;;;;;;3.28;1.50;;;;;;;18.19;44.94;100726.97;5139343;27;20226;-63
2023/10/09 09:58:55;;;;;;;3.40;0.90;;;;;;;18.17;43.60;100734.38;5139359;27;20236;-63
2023/10/09 10:01:26;;;;;;;4.10;1.80;;;;;;;18.21;43.63;100706.16;5139098;27;20039;-64
2023/10/09 10:04:13;;;;;;;2.05;1.33;;;;;;;17.98;43.70;100708.97;5135575;27;20328;-63
2023/10/09 10:06:44;;;;;;;5.72;1.60;;;;;;;18.12;43.49;100699.25;5141272;27;20031;-64
2023/10/09 10:09:10;;;;;;;2.72;1.20;;;;;;;17.97;43.79;100696.59;5141515;27;20055;-64
2023/10/09 10:11:48;;;;;;;5.55;1.65;;;;;;;18.07;44.49;100690.94;5141031;27;20083;-62
2023/10/09 10:14:31;;;;;;;3.97;1.33;;;;;;;18.24;43.62;100684.34;5123020;27;20274;-63
2023/10/09 10:17:16;;;;;;;3.17;1.35;;;;;;;17.83;44.38;100679.53;5140945;27;20391;-63
2023/10/09 10:22:47;;;;;;;5.15;1.92;;;;;;;17.96;44.32;100646.69;5139931;27;20315;-63
2023/10/09 10:25:41;;;;;;;2.10;1.30;;;;;;;18.22;43.93;100654.22;5141356;27;20072;-64
2023/10/09 10:28:45;;;;;;;;;;;;;;;18.26;43.55;100651.97;5142213;27;20485;-63
2023/10/09 10:31:08;;;;;;;4.32;1.42;;;;;;;18.18;43.93;100642.22;5140119;27;19927;-64
2023/10/09 10:33:55;;;;;;;3.30;1.60;;;;;;;18.29;43.73;100636.34;5140950;27;20289;-63
2023/10/09 10:36:24;;;;;;;2.60;1.27;;;;;;;18.35;43.48;100632.06;5140252;27;20339;-64
2023/10/09 10:39:11;;;;;;;10.10;1.80;;;;;;;18.46;43.17;100636.94;5140672;27;20267;-64
2023/10/09 10:41:50;;;;;;;2.95;1.20;;;;;;;18.27;43.52;100638.38;5140710;27;20336;-63
2023/10/09 10:44:37;;;;;;;6.63;1.50;;;;;;;18.35;43.53;100629.38;5140727;27;20350;-63
2023/10/09 10:47:21;;;;;;;4.15;1.73;;;;;;;18.49;43.39;100623.97;5140394;27;20042;-63
2023/10/09 10:49:51;;;;;;;7.35;2.05;;;;;;;18.66;43.02;100623.72;5141131;27;20332;-62
2023/10/09 10:52:35;;;;;;;2.97;1.42;;;;;;;18.81;42.48;100617.28;5140859;27;20302;-64
2023/10/09 10:55:18;;;;;;;2.10;1.33;;;;;;;18.54;42.91;100611.81;5140293;27;20043;-64
2023/10/09 10:57:53;;;;;;;4.28;1.48;;;;;;;18.68;42.97;100614.47;5139981;27;20333;-67
2023/10/09 11:03:13;;;;;;;3.22;1.58;;;;;;;18.87;42.75;100596.91;5140348;27;20106;-64
2023/10/09 11:05:42;;;;;;;2.75;1.60;;;;;;;19.03;42.01;100576.97;5140207;27;20035;-64
2023/10/09 11:08:11;;;;;;;4.57;2.00;;;;;;;18.90;42.09;100582.25;5140163;27;20027;-64
2023/10/09 11:10:49;;;;;;;3.95;1.83;;;;;;;18.97;42.00;100575.91;5138898;27;20035;-64
2023/10/09 11:13:36;;;;;;;5.80;1.92;;;;;;;18.98;42.47;100574.06;5140139;27;20160;-64
2023/10/09 11:16:28;;;;;;;5.20;2.08;;;;;;;18.87;41.97;100582.66;5140337;27;20103;-64
2023/10/09 11:18:57;;;;;;;3.75;2.15;;;;;;;18.99;41.90;100571.16;5139467;27;20038;-64
2023/10/09 11:21:30;;;;;;;3.30;1.80;;;;;;;19.07;41.14;100568.34;5140135;27;20331;-62
2023/10/09 11:23:58;;;;;;;;;;;;;;;19.00;41.61;100572.81;5139235;27;20452;-64
2023/10/09 11:26:25;;;;;;;4.53;1.50;;;;;;;19.03;41.92;100556.34;5137026;27;20157;-64
2023/10/09 11:29:31;;;;;;;3.08;1.60;;;;;;;19.06;41.99;100539.84;5136944;27;20034;-63
2023/10/09 11:32:05;;;;;;;3.97;1.65;;;;;;;19.00;41.97;100546.00;5135658;27;20102;-63
2023/10/09 11:34:37;;;;;;;2.92;1.20;;;;;;;18.85;42.48;100545.28;5137180;27;20225;-62
2023/10/09 11:37:11;;;;;;;4.43;1.85;;;;;;;18.94;41.78;100528.00;5138008;27;20031;-62
2023/10/09 11:39:50;;;;;;;3.15;1.80;;;;;;;18.95;41.62;100521.59;5135018;27;20102;-63
2023/10/09 11:43:03;;;;;;;3.47;1.73;;;;;;;19.16;41.83;100503.75;5138086;27;20049;-64
2023/10/09 11:45:19;;;;;;;16.25;1.90;;;;;;;19.25;41.46;100484.56;5120044;27;20051;-62
2023/10/09 11:47:57;;;;;;;3.08;1.85;;;;;;;18.93;41.34;100498.66;5134961;27;20034;-62
2023/10/09 11:51:28;;;;;;;2.97;1.95;;;;;;;18.99;41.37;100501.38;5117323;27;20076;-62
2023/10/09 11:55:53;;;;;;;3.83;1.85;;;;;;;19.09;41.01;100499.16;5134833;27;20210;-64
2023/10/09 11:58:23;;;;;;;4.53;2.25;;;;;;;19.20;40.64;100495.09;5135499;27;20043;-64
2023/10/09 12:00:59;;;;;;;6.05;2.17;;;;;;;19.29;40.21;100488.53;5134746;27;20039;-64
2023/10/09 12:03:29;;;;;;;5.03;1.90;;;;;;;19.29;40.23;100483.16;5134702;27;20317;-63
2023/10/09 12:06:05;;;;;;;5.60;2.00;;;;;;;19.26;41.17;100475.50;5135699;27;20039;-62
2023/10/09 12:08:32;;;;;;;3.13;1.85;;;;;;;19.32;40.42;100463.94;5134513;27;20034;-63
2023/10/09 12:10:58;;;;;;;5.07;1.77;;;;;;;19.35;40.10;100463.53;5134972;27;20031;-63
2023/10/09 12:13:24;;;;;;;4.45;1.73;;;;;;;19.38;40.07;100455.09;5135230;27;20023;-64
2023/10/09 12:15:53;;;;;;;4.50;1.70;;;;;;;19.48;39.57;100462.75;5134907;27;20031;-63
2023/10/09 12:18:21;;;;;;;3.03;1.80;;;;;;;19.56;39.08;100451.03;5137072;27;20043;-62
2023/10/09 12:20:50;;;;;;;4.80;2.13;;;;;;;19.53;38.25;100446.88;5136031;27;20229;-62
2023/10/09 12:23:17;;;;;;;3.75;1.40;;;;;;;19.61;38.25;100448.56;5136453;27;20295;-62
2023/10/09 12:25:46;;;;;;;1.98;1.65;;;;;;;19.55;38.26;100444.00;5135723;27;20053;-62
2023/10/09 12:28:14;;;;;;;3.92;1.73;;;;;;;19.53;37.65;100444.22;5136222;27;20098;-62
2023/10/09 12:30:41;;;;;;;3.35;1.88;;;;;;;19.58;37.79;100440.91;5134730;27;20047;-63
2023/10/09 12:33:08;;;;;;;2.92;1.65;;;;;;;19.43;38.58;100427.63;5135563;27;20045;-63
2023/10/09 12:35:38;;;;;;;2.38;1.98;;;;;;;19.41;38.77;100427.00;5135846;27;20094;-63
2023/10/09 12:38:08;;;;;;;4.10;1.65;;;;;;;19.30;39.15;100432.97;5135095;27;20030;-62
2023/10/09 12:40:34;;;;;;;4.03;1.40;;;;;;;19.36;38.98;100426.78;5136184;27;20225;-62
2023/10/09 12:43:00;;;;;;;2.72;1.60;;;;;;;19.44;38.92;100421.22;5135688;27;20309;-63
2023/10/09 12:45:32;;;;;;;2.75;1.70;;;;;;;19.38;38.89;100419.34;5136078;27;20037;-63
2023/10/09 12:47:59;;;;;;;2.75;1.35;;;;;;;19.41;38.55;100416.25;5137091;27;20102;-63
2023/10/09 12:50:28;;;;;;;3.92;1.77;;;;;;;19.43;39.05;100401.59;5135346;27;20054;-62
2023/10/09 12:53:18;;;;;;;3.75;1.70;;;;;;;19.58;38.40;100406.81;5135773;27;20035;-62
2023/10/09 12:55:43;;;;;;;4.80;2.00;;;;;;;19.48;38.37;100403.66;5134323;27;20122;-63
2023/10/09 12:58:14;;;;;;;2.22;1.63;;;;;;;19.62;38.03;100407.22;5135216;27;20039;-63
2023/10/09 13:00:44;;;;;;;7.18;2.00;;;;;;;19.59;37.90;100403.09;5134893;27;20187;-62
2023/10/09 13:03:17;;;;;;;6.13;1.42;;;;;;;19.42;37.96;100394.56;5135642;27;20034;-64
2023/10/09 13:05:54;;;;;;;2.95;1.60;;;;;;;19.40;37.69;100391.25;5135998;27;20030;-62
2023/10/09 13:08:35;;;;;;;2.42;1.40;;;;;;;19.57;38.48;100388.22;5135023;27;20038;-63
2023/10/09 13:11:11;;;;;;;3.97;1.80;;;;;;;19.70;38.07;100380.16;5135601;27;20230;-63
2023/10/09 13:13:46;;;;;;;5.15;1.90;;;;;;;19.69;37.51;100378.50;5135820;27;20019;-63
2023/10/09 13:16:24;;;;;;;3.17;1.40;;;;;;;19.68;37.51;100364.25;5135002;27;20039;-62
2023/10/09 13:18:51;;;;;;;2.60;1.35;;;;;;;19.63;38.22;100358.66;5134842;27;20046;-63
2023/10/09 13:21:21;;;;;;;4.03;1.42;;;;;;;19.75;38.31;100356.19;5134745;27;20062;-63
2023/10/09 13:23:49;;;;;;;2.70;1.30;;;;;;;19.69;38.14;100360.53;5134434;27;20043;-63
2023/10/09 13:26:23;;;;;;;4.07;1.55;;;;;;;19.75;37.87;100350.81;5134177;27;20027;-63
2023/10/09 13:28:50;;;;;;;5.05;1.30;;;;;;;19.72;37.68;100354.75;5134498;27;20039;-64
2023/10/09 13:31:17;;;;;;;3.03;1.38;;;;;;;19.59;37.87;100356.59;5134840;27;20042;-63
2023/10/09 13:33:44;;;;;;;3.25;1.40;;;;;;;19.64;37.30;100351.44;5134492;27;20035;-63
2023/10/09 13:36:26;;;;;;;4.38;1.35;;;;;;;19.63;37.70;100347.09;5134657;27;20043;-63
2023/10/09 13:38:53;;;;;;;5.15;1.55;;;;;;;19.60;38.11;100336.75;5139270;27;20301;-63
2023/10/09 13:41:18;;;;;;;2.45;1.17;;;;;;;19.68;37.64;100342.75;5134018;27;20046;-63
2023/10/09 13:43:44;;;;;;;3.05;1.35;;;;;;;19.61;37.70;100349.16;5135665;27;20023;-63
2023/10/09 13:46:13;;;;;;;3.47;1.30;;;;;;;19.68;37.91;100331.19;5134149;27;20050;-62
2023/10/09 13:48:43;;;;;;;2.20;1.20;;;;;;;19.70;37.45;100329.13;5133835;27;20333;-63
2023/10/09 13:51:19;;;;;;;2.58;1.17;;;;;;;19.61;37.19;100335.72;5134931;27;20081;-63
2023/10/09 13:53:48;;;;;;;1.92;1.20;;;;;;;19.61;37.59;100325.81;5134809;27;20072;-63
2023/10/09 13:56:27;;;;;;;4.25;1.40;;;;;;;19.65;37.55;100323.53;5134906;27;20360;-63
2023/10/09 13:58:53;;;;;;;4.53;1.50;;;;;;;19.67;37.03;100308.88;5134698;27;20039;-63
2023/10/09 14:01:32;;;;;;;4.93;1.23;;;;;;;19.65;37.69;100302.03;5134913;27;20048;-63
2023/10/09 14:03:59;;;;;;;1.83;1.10;;;;;;;19.61;37.05;100300.81;5134266;27;20031;-63
2023/10/09 14:06:31;;;;;;;2.00;1.10;;;;;;;19.51;37.31;100295.81;5134478;27;20244;-63
2023/10/09 14:09:05;;;;;;;4.45;1.88;;;;;;;19.43;37.35;100288.78;5135405;27;20110;-63
2023/10/09 14:11:32;;;;;;;2.85;1.35;;;;;;;19.54;37.54;100292.75;5134722;27;20031;-63
2023/10/09 14:14:00;;;;;;;3.33;1.40;;;;;;;19.61;37.77;100282.00;5134561;27;20100;-63
2023/10/09 14:16:27;;;;;;;2.15;1.10;;;;;;;19.63;37.50;100282.63;5134464;27;20041;-63
2023/10/09 14:18:56;;;;;;;3.45;1.20;;;;;;;19.64;37.42;100290.47;5134316;27;20071;-64
2023/10/09 14:21:29;;;;;;;2.90;1.52;;;;;;;19.58;37.79;100280.56;5137185;27;20031;-63
2023/10/09 14:23:59;;;;;;;3.85;1.40;;;;;;;19.64;37.41;100287.78;5138162;27;20059;-63
2023/10/09 14:26:29;;;;;;;1.50;1.13;;;;;;;19.65;37.39;100294.81;5138269;27;20107;-63
2023/10/09 14:28:56;;;;;;;3.50;1.45;;;;;;;19.62;37.37;100279.09;5138905;27;20023;-63
2023/10/09 14:31:26;;;;;;;1.55;1.25;;;;;;;19.55;37.81;100277.47;5137915;27;20144;-64
2023/10/09 14:33:56;;;;;;;2.67;1.20;;;;;;;19.58;37.78;100271.66;5137244;27;20068;-63
2023/10/09 14:36:22;;;;;;;2.40;1.60;;;;;;;19.55;37.69;100270.22;5137565;27;20132;-63
2023/10/09 14:38:55;;;;;;;3.65;1.60;;;;;;;19.61;37.57;100277.47;5137824;27;20062;-64